TimeCST,TemperatureF,Dew PointF,Humidity,Sea Level PressureIn,VisibilityMPH,Wind Direction,Wind SpeedMPH,Gust SpeedMPH,PrecipitationIn,Events,Conditions,WindDirDegrees,DateUTC
12:34 AM,42.8,39.2,87,29.82,3.0,NNE,9.2,-,0.01,Rain,Light Rain,20,2013-02-13 06:34:00
12:48 AM,41.0,39.2,93,29.81,3.0,NNE,9.2,-,0.01,Rain,Light Rain,20,2013-02-13 06:48:00
12:53 AM,41.0,41.0,100,29.81,3.0,NNE,8.1,-,0.01,Rain,Light Rain,20,2013-02-13 06:53:00
1:04 AM,41.0,39.2,93,29.81,4.0,NNE,8.1,-,N/A,,Overcast,20,2013-02-13 07:04:00
1:53 AM,41.0,39.9,96,29.81,3.0,North,11.5,-,N/A,,Overcast,10,2013-02-13 07:53:00
2:53 AM,41.0,39.9,96,29.81,4.0,North,12.7,-,0.01,,Overcast,10,2013-02-13 08:53:00
3:53 AM,39.9,39.0,97,29.82,4.0,North,13.8,-,0.01,,Overcast,350,2013-02-13 09:53:00
4:53 AM,39.0,37.9,96,29.85,6.0,North,11.5,18.4,N/A,,Overcast,360,2013-02-13 10:53:00
5:05 AM,39.2,37.4,93,29.86,7.0,North,11.5,20.7,N/A,,Overcast,360,2013-02-13 11:05:00
6:53 AM,39.0,37.0,93,29.90,10.0,North,5.8,-,N/A,,Overcast,350,2013-02-13 12:53:00
7:53 AM,39.0,37.0,93,29.94,10.0,NNW,5.8,-,N/A,,Overcast,340,2013-02-13 13:53:00
8:35 AM,39.2,37.4,93,29.96,10.0,North,5.8,-,N/A,,Overcast,350,2013-02-13 14:35:00
8:53 AM,39.0,36.0,89,29.96,10.0,North,4.6,-,N/A,,Overcast,10,2013-02-13 14:53:00
9:15 AM,39.2,37.4,93,29.97,10.0,NNW,4.6,-,N/A,,Overcast,340,2013-02-13 15:15:00
9:53 AM,39.9,37.0,89,29.99,10.0,NNW,8.1,-,N/A,,Overcast,340,2013-02-13 15:53:00
10:53 AM,41.0,37.0,86,30.02,10.0,NW,8.1,-,N/A,,Overcast,320,2013-02-13 16:53:00
11:00 AM,41.0,37.4,87,30.02,10.0,NNW,6.9,-,N/A,,Unknown,330,2013-02-13 17:00:00
11:26 AM,41.0,37.4,87,30.02,10.0,NW,8.1,-,N/A,,Overcast,320,2013-02-13 17:26:00
11:33 AM,41.0,37.4,87,30.02,10.0,NW,6.9,-,N/A,,Overcast,320,2013-02-13 17:33:00
11:53 AM,41.0,37.9,89,30.02,10.0,NW,4.6,-,N/A,,Overcast,310,2013-02-13 17:53:00
12:53 PM,41.0,37.9,89,30.01,10.0,NW,8.1,-,N/A,,Overcast,310,2013-02-13 18:53:00
1:53 PM,43.0,37.9,82,29.99,10.0,WNW,5.8,-,N/A,,Overcast,300,2013-02-13 19:53:00
2:26 PM,42.8,37.4,81,29.97,10.0,WNW,3.5,-,N/A,,Mostly Cloudy,300,2013-02-13 20:26:00
2:53 PM,44.1,37.9,79,29.97,10.0,NW,5.8,-,N/A,,Mostly Cloudy,320,2013-02-13 20:53:00
3:53 PM,44.1,37.9,79,29.98,10.0,WNW,4.6,-,N/A,,Overcast,300,2013-02-13 21:53:00
4:53 PM,45.0,37.0,74,29.98,10.0,SW,4.6,-,N/A,,Overcast,220,2013-02-13 22:53:00
5:30 PM,42.8,37.4,81,29.98,10.0,SW,4.6,-,N/A,,Scattered Clouds,220,2013-02-13 23:30:00
5:53 PM,42.1,37.0,82,29.99,10.0,SSW,4.6,-,N/A,,Clear,200,2013-02-13 23:53:00
6:53 PM,37.0,35.1,93,30.00,10.0,South,6.9,-,N/A,,Clear,190,2013-02-14 00:53:00
7:53 PM,37.9,36.0,93,30.01,10.0,SSW,5.8,-,N/A,,Clear,200,2013-02-14 01:53:00
8:53 PM,39.9,37.0,89,30.01,10.0,South,6.9,-,N/A,,Clear,190,2013-02-14 02:53:00
9:53 PM,39.9,37.0,89,30.02,10.0,South,9.2,-,N/A,,Clear,190,2013-02-14 03:53:00
10:53 PM,39.9,37.0,89,30.03,10.0,SSW,9.2,-,N/A,,Clear,200,2013-02-14 04:53:00
11:53 PM,39.0,36.0,89,30.03,10.0,SSW,8.1,-,N/A,,Clear,200,2013-02-14 05:53:00